Time;durP1;ratioP1;P1;durP2;ratioP2;P2;SDS_P1;SDS_P2;PMS_P1;PMS_P2;Temp;Humidity;BMP_temperature;BMP_pressure;BME280_temperature;BME280_humidity;BME280_pressure;Samples;Min_cycle;Max_cycle;Signal;HPM_P1;HPM_P2
2021/12/23 00:02:15;;;;;;;6.15;3.40;;;;;;;;;;5025626;28;20025;-30
2021/12/23 00:04:40;;;;;;;4.55;2.90;;;;;;;;;;5025688;28;20029;-32
2021/12/23 00:07:06;;;;;;;6.93;3.60;;;;;;;;;;5045100;28;20037;-34
2021/12/23 00:12:16;;;;;;;5.43;2.97;;;;;;;;;;5045244;28;20576;-32
2021/12/23 00:14:42;;;;;;;5.68;3.00;;;;;;;;;;5043070;28;20051;-31
2021/12/23 00:17:41;;;;;;;5.80;3.33;;;;;;;;;;5045420;28;20514;-32
2021/12/23 00:25:18;;;;;;;4.72;2.85;;;;;;;;;;5044751;28;20036;-31
2021/12/23 00:27:44;;;;;;;4.75;2.60;;;;;;;;;;5044549;28;20477;-28
2021/12/23 00:30:10;;;;;;;5.57;2.75;;;;;;;;;;5044586;28;20032;-33
2021/12/23 00:32:36;;;;;;;4.45;2.70;;;;;;;;;;5045121;28;20040;-31
2021/12/23 00:35:03;;;;;;;5.20;2.83;;;;;;;;;;5044915;28;20033;-36
2021/12/23 00:37:36;;;;;;;4.65;2.65;;;;;;;;;;5045227;28;20190;-32
2021/12/23 00:40:02;;;;;;;4.50;2.65;;;;;;;;;;5044790;28;20029;-29
2021/12/23 00:42:28;;;;;;;3.22;2.38;;;;;;;;;;5044958;28;20161;-32
2021/12/23 00:44:53;;;;;;;4.10;2.33;;;;;;;;;;5044838;28;20513;-30
2021/12/23 00:47:19;;;;;;;4.28;2.33;;;;;;;;;;5044990;28;20029;-30
2021/12/23 00:49:44;;;;;;;4.00;2.50;;;;;;;;;;5044737;28;20108;-34
2021/12/23 00:52:10;;;;;;;3.75;2.30;;;;;;;;;;5044607;28;20505;-30
2021/12/23 00:54:36;;;;;;;4.10;2.58;;;;;;;;;;5044100;28;20063;-31
2021/12/23 00:57:01;;;;;;;3.47;2.38;;;;;;;;;;5044189;28;20025;-32
2021/12/23 00:59:27;;;;;;;5.82;2.50;;;;;;;;;;5044778;28;20017;-31
2021/12/23 01:01:52;;;;;;;4.32;2.53;;;;;;;;;;5043444;28;20446;-32
2021/12/23 01:04:18;;;;;;;4.70;2.30;;;;;;;;;;5045122;28;20071;-30
2021/12/23 01:06:43;;;;;;;4.18;2.28;;;;;;;;;;5029284;28;20048;-33
2021/12/23 01:09:09;;;;;;;3.90;2.35;;;;;;;;;;5028647;28;20080;-30
2021/12/23 01:11:35;;;;;;;3.70;2.88;;;;;;;;;;5028558;28;20216;-32
2021/12/23 01:14:26;;;;;;;3.55;2.20;;;;;;;;;;5028170;28;20506;-32
2021/12/23 01:19:16;;;;;;;4.72;2.28;;;;;;;;;;5028217;28;20854;-33
2021/12/23 01:21:41;;;;;;;3.85;2.60;;;;;;;;;;5028074;28;20067;-33
2021/12/23 01:24:09;;;;;;;3.72;2.38;;;;;;;;;;5028200;28;20491;-32
2021/12/23 01:26:35;;;;;;;3.58;2.10;;;;;;;;;;5028241;28;20042;-32
2021/12/23 01:29:00;;;;;;;3.75;2.60;;;;;;;;;;5028160;28;20029;-30
2021/12/23 01:31:28;;;;;;;4.38;2.50;;;;;;;;;;5028202;28;20040;-32
2021/12/23 01:33:53;;;;;;;4.40;2.50;;;;;;;;;;5027793;28;20087;-33
2021/12/23 01:36:19;;;;;;;3.22;2.17;;;;;;;;;;5028029;28;20029;-32
2021/12/23 01:38:45;;;;;;;3.22;2.20;;;;;;;;;;5027416;28;20032;-32
2021/12/23 01:41:10;;;;;;;3.58;2.30;;;;;;;;;;5042915;28;20086;-33
2021/12/23 01:43:36;;;;;;;2.80;2.28;;;;;;;;;;5047860;28;20112;-33
2021/12/23 01:46:02;;;;;;;3.47;2.15;;;;;;;;;;5047741;28;20025;-30
2021/12/23 01:48:27;;;;;;;2.95;2.10;;;;;;;;;;5047538;28;20487;-29
2021/12/23 01:50:53;;;;;;;3.65;2.40;;;;;;;;;;5047889;28;20697;-32
2021/12/23 01:53:19;;;;;;;2.70;2.00;;;;;;;;;;5046690;28;20422;-34
2021/12/23 01:55:44;;;;;;;2.78;2.13;;;;;;;;;;5047867;28;20041;-30
2021/12/23 01:58:10;;;;;;;3.42;2.10;;;;;;;;;;5047728;28;20567;-28
2021/12/23 02:00:36;;;;;;;3.30;2.45;;;;;;;;;;5047439;28;20048;-35
2021/12/23 02:03:02;;;;;;;3.13;1.95;;;;;;;;;;5046902;28;20039;-31
2021/12/23 02:05:27;;;;;;;2.83;1.90;;;;;;;;;;5037353;28;20033;-31
2021/12/23 02:07:53;;;;;;;3.33;2.50;;;;;;;;;;5026547;28;20049;-31
2021/12/23 02:10:19;;;;;;;3.03;1.80;;;;;;;;;;5027383;28;20064;-30
2021/12/23 02:12:45;;;;;;;3.22;1.92;;;;;;;;;;5027368;28;20529;-32
2021/12/23 02:15:11;;;;;;;3.65;2.10;;;;;;;;;;5027409;28;20112;-31
2021/12/23 02:17:37;;;;;;;4.18;2.10;;;;;;;;;;5026178;28;20112;-31
2021/12/23 02:20:12;;;;;;;2.72;2.03;;;;;;;;;;5026415;28;20056;-30
2021/12/23 02:22:39;;;;;;;2.60;2.08;;;;;;;;;;5027094;28;20026;-29
2021/12/23 02:25:06;;;;;;;2.45;1.80;;;;;;;;;;5027233;28;20846;-34
2021/12/23 02:27:31;;;;;;;2.42;1.85;;;;;;;;;;5027048;28;20033;-31
2021/12/23 02:29:57;;;;;;;2.88;1.90;;;;;;;;;;5026810;28;20091;-33
2021/12/23 02:32:23;;;;;;;2.60;1.90;;;;;;;;;;5027023;28;20119;-29
2021/12/23 02:34:48;;;;;;;2.67;1.73;;;;;;;;;;5026937;28;20514;-29
2021/12/23 02:37:14;;;;;;;2.40;1.90;;;;;;;;;;5027396;28;20036;-32
2021/12/23 02:39:40;;;;;;;2.40;1.90;;;;;;;;;;5027112;28;20025;-30
2021/12/23 02:42:06;;;;;;;3.05;1.88;;;;;;;;;;5026912;28;20574;-29
2021/12/23 02:44:31;;;;;;;2.38;1.80;;;;;;;;;;5027030;28;20034;-31
2021/12/23 02:46:57;;;;;;;2.63;1.90;;;;;;;;;;5026666;28;20021;-34
2021/12/23 02:49:22;;;;;;;2.97;1.90;;;;;;;;;;5039681;28;20029;-34
2021/12/23 02:51:48;;;;;;;2.53;1.80;;;;;;;;;;5046736;28;20039;-30
2021/12/23 02:54:14;;;;;;;4.43;1.83;;;;;;;;;;5046809;28;20017;-32
2021/12/23 02:56:39;;;;;;;2.03;1.65;;;;;;;;;;5046534;28;20503;-31
2021/12/23 02:59:04;;;;;;;2.90;1.65;;;;;;;;;;5045238;28;20060;-30
2021/12/23 03:01:30;;;;;;;2.72;2.08;;;;;;;;;;5046385;28;20086;-33
2021/12/23 03:03:56;;;;;;;2.35;1.88;;;;;;;;;;5046038;28;20442;-29
2021/12/23 03:06:22;;;;;;;2.05;1.77;;;;;;;;;;5028475;28;20187;-31
2021/12/23 03:08:56;;;;;;;2.50;1.90;;;;;;;;;;5026188;28;20046;-29
2021/12/23 03:11:23;;;;;;;1.92;1.40;;;;;;;;;;5026584;28;20030;-30
2021/12/23 03:13:49;;;;;;;1.95;1.65;;;;;;;;;;5026121;28;20152;-31
2021/12/23 03:16:17;;;;;;;2.47;1.70;;;;;;;;;;5025722;28;20083;-32
2021/12/23 03:18:43;;;;;;;2.17;1.70;;;;;;;;;;5025746;28;20025;-31
2021/12/23 03:21:08;;;;;;;1.52;1.38;;;;;;;;;;5026038;28;20029;-28
2021/12/23 03:23:34;;;;;;;1.90;1.67;;;;;;;;;;5025286;28;20025;-29
2021/12/23 03:25:59;;;;;;;2.13;1.60;;;;;;;;;;5024999;28;20108;-30
2021/12/23 03:28:25;;;;;;;2.60;1.77;;;;;;;;;;5026020;28;20033;-29
2021/12/23 03:30:51;;;;;;;1.90;1.38;;;;;;;;;;5025802;28;20060;-33
2021/12/23 03:33:16;;;;;;;2.08;1.70;;;;;;;;;;5026119;28;20051;-32
2021/12/23 03:35:42;;;;;;;1.52;1.20;;;;;;;;;;5025647;28;20498;-29
2021/12/23 03:38:08;;;;;;;1.92;1.52;;;;;;;;;;5025732;28;20133;-32
2021/12/23 03:40:33;;;;;;;1.73;1.50;;;;;;;;;;5025849;28;20115;-31
2021/12/23 03:42:59;;;;;;;2.25;1.73;;;;;;;;;;5025850;28;20032;-32
2021/12/23 03:45:24;;;;;;;2.42;1.38;;;;;;;;;;5025960;28;20021;-33
2021/12/23 03:47:50;;;;;;;1.80;1.50;;;;;;;;;;5025398;28;20457;-33
2021/12/23 03:50:17;;;;;;;2.13;1.42;;;;;;;;;;5025798;28;20036;-34
2021/12/23 03:52:43;;;;;;;2.42;1.75;;;;;;;;;;5024790;28;20045;-29
2021/12/23 03:55:09;;;;;;;2.17;1.65;;;;;;;;;;5024360;28;20029;-35
2021/12/23 03:57:34;;;;;;;1.92;1.40;;;;;;;;;;5025586;28;20028;-31
2021/12/23 04:00:00;;;;;;;1.90;1.50;;;;;;;;;;5025464;28;20029;-31
2021/12/23 04:02:25;;;;;;;2.00;1.73;;;;;;;;;;5025411;28;20029;-29
2021/12/23 04:04:51;;;;;;;1.92;1.35;;;;;;;;;;5030446;28;20410;-31
2021/12/23 04:07:16;;;;;;;1.88;1.52;;;;;;;;;;5044848;28;20041;-32
2021/12/23 04:09:42;;;;;;;1.88;1.60;;;;;;;;;;5045089;28;20029;-31
2021/12/23 04:12:08;;;;;;;1.85;1.35;;;;;;;;;;5044562;28;20058;-30
2021/12/23 04:14:34;;;;;;;2.13;1.67;;;;;;;;;;5039656;28;20109;-31
2021/12/23 04:16:59;;;;;;;2.10;1.40;;;;;;;;;;5025250;28;20068;-29
2021/12/23 04:19:28;;;;;;;1.55;1.38;;;;;;;;;;5025393;28;20037;-30
2021/12/23 04:21:54;;;;;;;1.85;1.45;;;;;;;;;;5024391;28;20040;-32
2021/12/23 04:24:19;;;;;;;1.50;1.33;;;;;;;;;;5025141;28;20116;-33
2021/12/23 04:26:45;;;;;;;1.45;1.17;;;;;;;;;;5023379;28;20025;-28
2021/12/23 04:29:10;;;;;;;2.25;1.80;;;;;;;;;;5025187;28;20527;-33
2021/12/23 04:31:36;;;;;;;2.25;1.48;;;;;;;;;;5025221;28;20029;-30
2021/12/23 04:34:01;;;;;;;1.58;1.05;;;;;;;;;;5024917;28;20021;-31
2021/12/23 04:36:29;;;;;;;1.50;1.30;;;;;;;;;;5025111;28;20026;-30
2021/12/23 04:38:54;;;;;;;3.92;1.50;;;;;;;;;;5024908;28;20076;-31
2021/12/23 04:41:20;;;;;;;1.67;1.35;;;;;;;;;;5029027;28;20073;-32
2021/12/23 04:43:46;;;;;;;1.70;1.33;;;;;;;;;;5028251;28;20029;-29
2021/12/23 04:46:11;;;;;;;1.55;1.25;;;;;;;;;;5034286;28;20128;-29
2021/12/23 04:48:37;;;;;;;1.52;1.20;;;;;;;;;;5030286;28;20052;-29
2021/12/23 04:51:02;;;;;;;1.52;1.10;;;;;;;;;;5031691;28;20614;-31
2021/12/23 04:53:28;;;;;;;1.20;1.10;;;;;;;;;;5037014;28;20026;-33
2021/12/23 04:55:53;;;;;;;1.20;1.10;;;;;;;;;;5026595;28;20491;-36
2021/12/23 04:58:19;;;;;;;3.20;1.60;;;;;;;;;;5038015;28;20033;-31
2021/12/23 05:00:48;;;;;;;2.03;1.48;;;;;;;;;;5044115;28;20083;-34
2021/12/23 05:03:15;;;;;;;4.30;1.17;;;;;;;;;;5039161;28;20030;-33
2021/12/23 05:05:40;;;;;;;1.35;1.20;;;;;;;;;;5037970;28;20032;-31
2021/12/23 05:08:06;;;;;;;1.90;1.30;;;;;;;;;;5046531;28;20450;-29
2021/12/23 05:10:32;;;;;;;2.83;1.70;;;;;;;;;;5048664;28;20053;-33
2021/12/23 05:12:58;;;;;;;5.18;1.35;;;;;;;;;;5048559;28;20107;-28
2021/12/23 05:15:23;;;;;;;4.53;1.35;;;;;;;;;;5048677;28;20040;-30
2021/12/23 05:17:49;;;;;;;2.58;1.40;;;;;;;;;;5048360;28;20032;-31
2021/12/23 05:20:16;;;;;;;1.33;1.10;;;;;;;;;;5048384;28;20095;-31
2021/12/23 05:22:41;;;;;;;7.53;1.80;;;;;;;;;;5048417;28;20032;-35
2021/12/23 05:25:07;;;;;;;3.38;1.52;;;;;;;;;;5047948;28;20021;-31
2021/12/23 05:27:33;;;;;;;1.67;1.50;;;;;;;;;;5047566;28;20123;-30
2021/12/23 05:29:59;;;;;;;2.30;1.70;;;;;;;;;;5043953;28;20052;-32
2021/12/23 05:32:24;;;;;;;2.05;1.35;;;;;;;;;;5047581;28;20132;-30
2021/12/23 05:34:50;;;;;;;4.30;1.25;;;;;;;;;;5047052;28;20109;-33
2021/12/23 05:37:15;;;;;;;3.03;1.45;;;;;;;;;;5044584;28;20013;-31
2021/12/23 05:39:41;;;;;;;2.83;1.20;;;;;;;;;;5036820;28;20453;-31
2021/12/23 05:42:06;;;;;;;2.10;1.52;;;;;;;;;;5036269;28;20053;-30
2021/12/23 05:44:32;;;;;;;3.85;1.70;;;;;;;;;;5044450;28;20026;-30
2021/12/23 05:46:57;;;;;;;7.57;2.08;;;;;;;;;;5035606;28;20767;-28
2021/12/23 05:49:23;;;;;;;9.80;2.00;;;;;;;;;;5045887;28;20478;-28
2021/12/23 05:51:48;;;;;;;6.95;1.90;;;;;;;;;;5047599;28;20426;-34
2021/12/23 05:54:14;;;;;;;6.05;1.73;;;;;;;;;;5047335;28;20029;-28
2021/12/23 05:56:40;;;;;;;2.70;1.70;;;;;;;;;;5045275;28;20027;-31
2021/12/23 05:59:05;;;;;;;3.38;1.63;;;;;;;;;;5046924;28;20052;-30
2021/12/23 06:01:31;;;;;;;9.60;2.17;;;;;;;;;;5047386;28;20446;-32
2021/12/23 06:03:56;;;;;;;17.38;1.95;;;;;;;;;;5044557;28;20546;-33
2021/12/23 06:06:22;;;;;;;27.95;2.83;;;;;;;;;;5044622;28;20025;-32
2021/12/23 06:08:48;;;;;;;15.25;2.10;;;;;;;;;;5034855;28;20045;-34
2021/12/23 06:11:13;;;;;;;8.35;2.50;;;;;;;;;;5038250;28;20013;-32
2021/12/23 06:13:38;;;;;;;10.35;2.22;;;;;;;;;;5029204;28;20029;-36
2021/12/23 06:16:04;;;;;;;8.77;2.10;;;;;;;;;;5026914;28;20499;-34
2021/12/23 06:18:30;;;;;;;8.65;1.73;;;;;;;;;;5027730;28;20123;-29
2021/12/23 06:20:55;;;;;;;7.03;1.92;;;;;;;;;;5027155;28;20037;-31
2021/12/23 06:23:21;;;;;;;6.60;1.80;;;;;;;;;;5027413;28;20029;-31
2021/12/23 06:25:46;;;;;;;9.20;2.40;;;;;;;;;;5035829;28;20021;-32
2021/12/23 06:28:12;;;;;;;7.35;1.65;;;;;;;;;;5031939;28;20057;-33
2021/12/23 06:30:37;;;;;;;6.35;1.35;;;;;;;;;;5027067;28;20087;-33
2021/12/23 06:33:03;;;;;;;9.48;1.92;;;;;;;;;;5026900;28;20079;-32
2021/12/23 06:35:29;;;;;;;8.68;1.70;;;;;;;;;;5027276;28;20395;-32
2021/12/23 06:37:55;;;;;;;6.50;1.85;;;;;;;;;;5026998;28;20415;-29
2021/12/23 06:40:20;;;;;;;11.82;1.90;;;;;;;;;;5026825;28;20067;-32
2021/12/23 06:42:46;;;;;;;9.80;1.90;;;;;;;;;;5026592;28;20033;-31
2021/12/23 06:45:11;;;;;;;7.40;1.80;;;;;;;;;;5027059;28;20049;-32
2021/12/23 06:47:37;;;;;;;6.65;1.50;;;;;;;;;;5026921;28;20026;-33
2021/12/23 06:50:04;;;;;;;7.75;1.40;;;;;;;;;;5026520;28;20560;-31
2021/12/23 06:52:30;;;;;;;10.68;1.65;;;;;;;;;;5026695;28;20108;-31
2021/12/23 06:54:57;;;;;;;5.05;1.45;;;;;;;;;;5025991;28;20029;-32
2021/12/23 06:57:23;;;;;;;4.57;1.42;;;;;;;;;;5026675;28;20026;-33
2021/12/23 06:59:49;;;;;;;5.78;1.20;;;;;;;;;;5025222;28;20055;-33
2021/12/23 07:02:15;;;;;;;5.53;1.30;;;;;;;;;;5041934;28;20616;-30
2021/12/23 07:04:42;;;;;;;2.63;1.20;;;;;;;;;;5038861;28;20487;-33
2021/12/23 07:07:09;;;;;;;2.80;1.55;;;;;;;;;;5026328;28;20048;-30
2021/12/23 07:09:36;;;;;;;5.88;1.48;;;;;;;;;;5026567;28;20033;-35
2021/12/23 07:12:03;;;;;;;2.20;1.42;;;;;;;;;;5026171;28;20045;-33
2021/12/23 07:14:28;;;;;;;5.97;1.50;;;;;;;;;;5026170;28;20034;-34
2021/12/23 07:16:54;;;;;;;2.90;1.25;;;;;;;;;;5026368;28;20034;-33
2021/12/23 07:19:19;;;;;;;3.15;1.60;;;;;;;;;;5026319;28;20025;-31
2021/12/23 07:21:44;;;;;;;3.55;1.50;;;;;;;;;;5026037;28;20033;-28
2021/12/23 07:24:10;;;;;;;4.82;1.38;;;;;;;;;;5038313;28;20025;-32
2021/12/23 07:26:36;;;;;;;3.83;1.38;;;;;;;;;;5037605;28;20656;-33
2021/12/23 07:29:01;;;;;;;3.08;1.63;;;;;;;;;;5038857;28;20059;-30
2021/12/23 07:31:26;;;;;;;3.13;1.45;;;;;;;;;;5028882;28;20116;-34
2021/12/23 07:33:52;;;;;;;2.83;1.20;;;;;;;;;;5026033;28;20025;-34
2021/12/23 07:36:18;;;;;;;1.80;1.35;;;;;;;;;;5026230;28;20065;-33
2021/12/23 07:38:43;;;;;;;2.88;1.40;;;;;;;;;;5026146;28;20499;-33
2021/12/23 07:41:09;;;;;;;2.33;1.50;;;;;;;;;;5026079;28;20470;-30
2021/12/23 07:46:00;;;;;;;2.15;1.38;;;;;;;;;;5026606;28;20072;-32
2021/12/23 07:48:26;;;;;;;2.70;1.48;;;;;;;;;;5024620;28;20048;-30
2021/12/23 07:50:53;;;;;;;2.33;1.20;;;;;;;;;;5030967;28;20029;-29
2021/12/23 07:53:19;;;;;;;2.28;1.10;;;;;;;;;;5045367;28;20017;-31
2021/12/23 07:55:44;;;;;;;2.58;1.45;;;;;;;;;;5045283;28;20061;-30
2021/12/23 07:58:10;;;;;;;4.82;1.48;;;;;;;;;;5045374;28;20070;-30
2021/12/23 08:00:36;;;;;;;1.98;1.30;;;;;;;;;;5043940;28;20068;-36
2021/12/23 08:03:01;;;;;;;3.67;1.40;;;;;;;;;;5045188;28;20068;-36
2021/12/23 08:05:27;;;;;;;3.00;1.35;;;;;;;;;;5043980;28;20693;-32
2021/12/23 08:07:54;;;;;;;1.95;1.30;;;;;;;;;;5043005;28;20059;-31
2021/12/23 08:10:20;;;;;;;5.10;1.50;;;;;;;;;;5045114;28;20116;-32
2021/12/23 08:12:45;;;;;;;2.25;1.33;;;;;;;;;;5045000;28;20111;-30
2021/12/23 08:15:11;;;;;;;2.65;1.65;;;;;;;;;;5036025;28;20068;-29
2021/12/23 08:17:36;;;;;;;2.45;1.60;;;;;;;;;;5025010;28;20455;-30
2021/12/23 08:20:03;;;;;;;2.63;1.75;;;;;;;;;;5025391;28;20898;-34
2021/12/23 08:22:28;;;;;;;2.88;1.48;;;;;;;;;;5024580;28;20124;-31
2021/12/23 08:24:54;;;;;;;3.92;1.83;;;;;;;;;;5025138;28;20033;-30
2021/12/23 08:27:26;;;;;;;3.38;1.75;;;;;;;;;;5024664;28;20056;-34
2021/12/23 08:29:51;;;;;;;6.32;1.90;;;;;;;;;;5024412;28;20036;-32
2021/12/23 08:32:17;;;;;;;2.47;1.90;;;;;;;;;;5025244;28;20029;-30
2021/12/23 08:34:42;;;;;;;1.75;1.45;;;;;;;;;;5024611;28;20132;-29
2021/12/23 08:37:11;;;;;;;3.65;2.10;;;;;;;;;;5024829;28;20030;-33
2021/12/23 08:39:37;;;;;;;2.53;2.00;;;;;;;;;;5025265;28;20116;-33
2021/12/23 08:42:03;;;;;;;1.92;1.50;;;;;;;;;;5025014;28;20556;-30
2021/12/23 08:44:29;;;;;;;1.90;1.50;;;;;;;;;;5024068;28;20061;-32
2021/12/23 08:46:54;;;;;;;4.70;2.10;;;;;;;;;;5024274;28;20026;-32
2021/12/23 08:49:20;;;;;;;3.45;1.92;;;;;;;;;;5026895;28;20030;-29
2021/12/23 08:51:45;;;;;;;4.40;1.90;;;;;;;;;;5042875;28;20029;-29
2021/12/23 08:54:11;;;;;;;4.25;2.33;;;;;;;;;;5042826;28;20476;-34
2021/12/23 08:56:36;;;;;;;4.32;2.50;;;;;;;;;;5042578;28;20068;-34
2021/12/23 08:59:02;;;;;;;5.03;2.20;;;;;;;;;;5042626;28;20681;-32
2021/12/23 09:01:27;;;;;;;4.30;2.15;;;;;;;;;;5030329;28;20077;-29
2021/12/23 09:03:53;;;;;;;3.15;2.42;;;;;;;;;;5023220;28;20115;-34
2021/12/23 09:06:18;;;;;;;3.55;2.33;;;;;;;;;;5022921;28;20294;-31
2021/12/23 09:08:44;;;;;;;3.55;2.42;;;;;;;;;;5021012;28;20742;-35
2021/12/23 09:11:10;;;;;;;5.28;2.55;;;;;;;;;;5034145;28;20509;-33
2021/12/23 09:13:35;;;;;;;6.63;2.67;;;;;;;;;;5037142;28;20052;-34
2021/12/23 09:16:01;;;;;;;3.63;2.42;;;;;;;;;;5029931;28;20033;-32
2021/12/23 09:18:26;;;;;;;4.78;2.75;;;;;;;;;;5033184;28;20091;-32
2021/12/23 09:20:52;;;;;;;3.45;2.45;;;;;;;;;;5024531;28;20740;-34
2021/12/23 09:23:18;;;;;;;5.68;2.85;;;;;;;;;;5022519;28;20025;-34
2021/12/23 09:25:45;;;;;;;4.40;2.60;;;;;;;;;;5028904;28;20057;-33
2021/12/23 09:33:39;;;;;;;5.75;2.80;;;;;;;;;;5031479;28;20427;-30
2021/12/23 09:36:05;;;;;;;3.75;2.70;;;;;;;;;;5045419;28;20025;-34
2021/12/23 09:38:30;;;;;;;3.72;2.72;;;;;;;;;;5045499;28;20108;-30
2021/12/23 09:41:10;;;;;;;5.00;2.72;;;;;;;;;;5045335;28;20052;-30
2021/12/23 09:43:36;;;;;;;5.30;2.92;;;;;;;;;;5045962;28;20491;-30
2021/12/23 09:46:03;;;;;;;5.97;2.88;;;;;;;;;;5045544;28;20460;-34
2021/12/23 09:48:29;;;;;;;5.10;2.72;;;;;;;;;;5045606;28;20461;-31
2021/12/23 09:50:55;;;;;;;5.70;3.17;;;;;;;;;;5045513;28;20029;-31
2021/12/23 09:53:21;;;;;;;3.63;2.72;;;;;;;;;;5045680;28;20098;-31
2021/12/23 09:55:47;;;;;;;4.28;2.90;;;;;;;;;;5045382;28;20043;-34
2021/12/23 09:58:12;;;;;;;5.28;3.00;;;;;;;;;;5045385;28;20144;-32
2021/12/23 10:00:39;;;;;;;6.10;2.95;;;;;;;;;;5043757;28;20032;-32
2021/12/23 10:03:06;;;;;;;4.40;2.85;;;;;;;;;;5045450;28;20083;-30
2021/12/23 10:05:32;;;;;;;5.25;2.92;;;;;;;;;;5044138;28;20044;-32
2021/12/23 10:07:57;;;;;;;5.07;3.03;;;;;;;;;;5045131;28;20045;-28
2021/12/23 10:10:40;;;;;;;4.88;3.22;;;;;;;;;;5045242;28;20120;-33
2021/12/23 10:38:39;;;;;;;4.80;3.42;;;;;;;;;;5001073;28;20209;-31
2021/12/23 10:41:24;;;;;;;5.60;3.25;;;;;;;;;;4991628;28;20524;-33
2021/12/23 10:43:55;;;;;;;5.68;3.80;;;;;;;;;;5033515;28;20072;-29
2021/12/23 10:46:32;;;;;;;5.22;3.63;;;;;;;;;;5044130;28;20415;-34
2021/12/23 10:49:38;;;;;;;4.47;3.60;;;;;;;;;;5044535;28;20079;-30
2021/12/23 11:00:52;;;;;;;6.85;3.50;;;;;;;;;;5046316;28;20437;-31
2021/12/23 11:03:34;;;;;;;6.32;4.00;;;;;;;;;;5042515;28;20037;-31
2021/12/23 11:06:11;;;;;;;7.13;4.00;;;;;;;;;;5026347;28;20037;-35
2021/12/23 11:40:56;;;;;;;5.20;3.88;;;;;;;;;;5025820;28;20035;-30
2021/12/23 11:46:06;;;;;;;5.13;3.92;;;;;;;;;;5025872;28;20172;-33
2021/12/23 11:48:37;;;;;;;7.22;4.03;;;;;;;;;;5025326;28;20120;-34
2021/12/23 11:51:08;;;;;;;7.32;4.45;;;;;;;;;;5025437;28;20406;-36
2021/12/23 11:53:34;;;;;;;6.50;4.50;;;;;;;;;;5025667;28;20029;-30
2021/12/23 11:55:59;;;;;;;5.95;4.53;;;;;;;;;;5024038;28;20849;-34
2021/12/23 11:58:25;;;;;;;6.97;4.78;;;;;;;;;;5023686;28;20048;-33
2021/12/23 12:01:08;;;;;;;8.05;5.38;;;;;;;;;;5023858;28;20503;-35
2021/12/23 12:03:38;;;;;;;5.43;4.57;;;;;;;;;;5026453;28;20033;-29
2021/12/23 12:06:17;;;;;;;6.88;4.88;;;;;;;;;;5025534;28;20037;-28
2021/12/23 12:08:43;;;;;;;8.13;5.00;;;;;;;;;;5022152;28;20046;-32
2021/12/23 12:11:21;;;;;;;7.47;5.00;;;;;;;;;;5025262;28;20593;-34
2021/12/23 12:13:48;;;;;;;7.90;5.40;;;;;;;;;;5024948;28;20136;-31
2021/12/23 12:16:33;;;;;;;7.60;5.53;;;;;;;;;;5025335;28;20105;-34
2021/12/23 12:18:59;;;;;;;7.88;5.75;;;;;;;;;;5025462;28;20418;-33
2021/12/23 12:21:30;;;;;;;6.78;5.07;;;;;;;;;;5025432;28;20033;-32
2021/12/23 12:24:23;;;;;;;8.50;5.40;;;;;;;;;;5024517;28;20029;-31
2021/12/23 12:26:55;;;;;;;7.22;4.75;;;;;;;;;;5024822;28;20037;-34
2021/12/23 12:29:25;;;;;;;8.23;5.82;;;;;;;;;;5025138;28;20041;-32
2021/12/23 12:31:51;;;;;;;7.93;5.65;;;;;;;;;;5024781;28;20376;-30
2021/12/23 12:34:19;;;;;;;6.57;5.00;;;;;;;;;;5025454;28;20032;-33
2021/12/23 12:36:49;;;;;;;7.03;4.97;;;;;;;;;;5025296;28;20034;-28
2021/12/23 12:39:26;;;;;;;5.28;4.35;;;;;;;;;;5025315;28;20033;-33
2021/12/23 12:42:00;;;;;;;6.43;4.55;;;;;;;;;;5024916;28;20577;-30
2021/12/23 12:44:36;;;;;;;6.65;4.78;;;;;;;;;;5024884;28;20037;-29
2021/12/23 12:49:33;;;;;;;6.63;4.85;;;;;;;;;;5025279;28;20124;-29
2021/12/23 12:52:07;;;;;;;5.78;4.70;;;;;;;;;;5024513;28;20038;-29
2021/12/23 12:54:33;;;;;;;5.68;4.60;;;;;;;;;;5025171;28;20120;-32
2021/12/23 12:57:04;;;;;;;5.45;4.20;;;;;;;;;;5024773;28;20029;-31
2021/12/23 12:59:31;;;;;;;5.57;4.80;;;;;;;;;;5023514;28;20052;-32
2021/12/23 13:01:57;;;;;;;6.22;4.75;;;;;;;;;;5025932;28;20038;-34
2021/12/23 13:04:36;;;;;;;6.75;5.10;;;;;;;;;;5028981;28;20028;-32
2021/12/23 13:07:25;;;;;;;5.53;4.63;;;;;;;;;;5028455;28;20069;-30
2021/12/23 13:09:59;;;;;;;5.50;4.55;;;;;;;;;;5028572;28;20032;-32
2021/12/23 13:12:31;;;;;;;7.10;5.13;;;;;;;;;;5028780;28;20028;-29
2021/12/23 13:15:16;;;;;;;5.82;4.32;;;;;;;;;;5028763;28;20030;-31
2021/12/23 13:18:09;;;;;;;7.03;4.97;;;;;;;;;;5026598;28;20484;-33
2021/12/23 13:20:54;;;;;;;5.38;4.47;;;;;;;;;;5026582;28;20037;-29
2021/12/23 13:23:36;;;;;;;7.32;4.60;;;;;;;;;;5028731;28;20124;-28
2021/12/23 13:26:02;;;;;;;6.05;4.95;;;;;;;;;;5028543;28;20022;-28
2021/12/23 13:28:38;;;;;;;5.50;4.40;;;;;;;;;;5028810;28;20068;-30
2021/12/23 13:31:20;;;;;;;5.93;4.40;;;;;;;;;;5027960;28;20041;-32
2021/12/23 13:33:53;;;;;;;5.75;4.63;;;;;;;;;;5028283;28;20100;-33
2021/12/23 13:36:49;;;;;;;6.20;4.65;;;;;;;;;;5028471;28;20060;-29
2021/12/23 13:39:26;;;;;;;6.28;4.82;;;;;;;;;;5024435;28;20051;-33
2021/12/23 13:41:58;;;;;;;7.82;4.90;;;;;;;;;;5038170;28;20399;-33
2021/12/23 13:44:31;;;;;;;5.75;4.43;;;;;;;;;;5038858;28;20037;-32
2021/12/23 13:47:09;;;;;;;6.57;4.78;;;;;;;;;;5048365;28;20120;-32
2021/12/23 13:50:01;;;;;;;6.45;5.00;;;;;;;;;;5036352;28;20510;-31
2021/12/23 13:52:41;;;;;;;7.55;4.65;;;;;;;;;;5036484;28;20135;-27
2021/12/23 13:55:15;;;;;;;6.05;4.53;;;;;;;;;;5035160;28;20029;-34
2021/12/23 13:57:43;;;;;;;5.38;4.38;;;;;;;;;;5036540;28;20494;-30
2021/12/23 14:00:20;;;;;;;7.13;4.85;;;;;;;;;;5036216;28;20407;-32
2021/12/23 14:02:50;;;;;;;8.70;5.25;;;;;;;;;;5036485;28;20025;-29
2021/12/23 14:05:16;;;;;;;8.25;5.28;;;;;;;;;;5035262;28;20028;-32
2021/12/23 14:07:46;;;;;;;7.35;5.13;;;;;;;;;;5034812;28;20041;-33
2021/12/23 14:10:13;;;;;;;6.68;5.15;;;;;;;;;;5037916;28;20037;-34
2021/12/23 14:12:51;;;;;;;6.85;5.22;;;;;;;;;;5037828;28;20243;-32
2021/12/23 14:15:17;;;;;;;9.60;5.95;;;;;;;;;;5047785;28;20052;-31
2021/12/23 14:17:45;;;;;;;11.65;7.07;;;;;;;;;;5047306;28;20025;-32
2021/12/23 14:23:13;;;;;;;21.48;11.05;;;;;;;;;;5047047;28;20344;-29
2021/12/23 14:25:46;;;;;;;22.75;12.15;;;;;;;;;;5045035;28;20107;-31
2021/12/23 14:28:13;;;;;;;25.40;14.25;;;;;;;;;;5045409;28;20451;-30
2021/12/23 14:30:43;;;;;;;31.15;15.60;;;;;;;;;;5045123;28;20115;-32
2021/12/23 14:33:21;;;;;;;30.77;16.42;;;;;;;;;;5045027;28;20046;-29
2021/12/23 14:35:58;;;;;;;33.28;17.42;;;;;;;;;;5044947;28;20025;-32
2021/12/23 14:38:43;;;;;;;31.67;18.67;;;;;;;;;;5044896;28;20033;-30
2021/12/23 14:41:09;;;;;;;31.77;18.40;;;;;;;;;;5045075;28;20040;-30
2021/12/23 14:43:57;;;;;;;34.67;19.42;;;;;;;;;;5035780;28;20057;-30
2021/12/23 14:46:40;;;;;;;34.17;19.85;;;;;;;;;;5024670;28;20090;-34
2021/12/23 14:52:13;;;;;;;33.25;20.17;;;;;;;;;;5016609;28;20064;-30
2021/12/23 14:54:50;;;;;;;35.90;20.95;;;;;;;;;;5024046;28;20068;-31
2021/12/23 14:57:17;;;;;;;36.55;20.55;;;;;;;;;;5024650;28;20108;-30
2021/12/23 14:59:48;;;;;;;35.42;20.83;;;;;;;;;;5024747;28;20031;-30
2021/12/23 15:02:16;;;;;;;31.50;19.45;;;;;;;;;;5024510;28;20025;-33
2021/12/23 15:05:03;;;;;;;31.65;19.42;;;;;;;;;;5035907;28;20056;-30
2021/12/23 15:07:45;;;;;;;33.75;20.15;;;;;;;;;;5043809;28;20086;-31
2021/12/23 15:10:10;;;;;;;30.95;20.10;;;;;;;;;;5044043;28;20574;-30
2021/12/23 15:12:36;;;;;;;31.85;19.35;;;;;;;;;;5043967;28;20039;-34
2021/12/23 15:15:07;;;;;;;32.97;19.85;;;;;;;;;;5043838;28;20070;-29
2021/12/23 15:17:41;;;;;;;30.98;19.42;;;;;;;;;;5042600;28;20025;-31
2021/12/23 15:20:19;;;;;;;32.10;18.80;;;;;;;;;;5043807;28;20029;-31
2021/12/23 15:22:45;;;;;;;32.65;19.15;;;;;;;;;;5033153;28;20033;-31
2021/12/23 15:25:11;;;;;;;33.03;16.10;;;;;;;;;;5030433;28;20079;-33
2021/12/23 15:27:40;;;;;;;31.77;17.25;;;;;;;;;;5038715;28;20033;-29
2021/12/23 15:30:17;;;;;;;36.95;18.52;;;;;;;;;;5043849;28;20020;-28
2021/12/23 15:32:43;;;;;;;28.17;17.13;;;;;;;;;;5035724;28;20028;-31
2021/12/23 15:35:13;;;;;;;32.42;17.27;;;;;;;;;;5040495;28;20110;-36
2021/12/23 15:37:40;;;;;;;47.40;17.38;;;;;;;;;;5036951;28;20146;-30
2021/12/23 15:40:14;;;;;;;31.15;18.42;;;;;;;;;;5023372;28;20029;-33
2021/12/23 15:42:39;;;;;;;33.42;18.05;;;;;;;;;;5023606;28;20132;-33
2021/12/23 15:45:05;;;;;;;25.25;15.75;;;;;;;;;;5022721;28;20028;-29
2021/12/23 15:47:31;;;;;;;27.67;15.93;;;;;;;;;;5023606;28;20034;-34
2021/12/23 15:49:58;;;;;;;25.42;15.18;;;;;;;;;;5023359;28;20033;-30
2021/12/23 15:52:24;;;;;;;27.70;15.63;;;;;;;;;;5033502;28;20485;-29
2021/12/23 15:54:50;;;;;;;33.38;15.63;;;;;;;;;;5032387;28;20144;-32
2021/12/23 15:57:16;;;;;;;23.30;14.55;;;;;;;;;;5022895;28;20120;-33
2021/12/23 15:59:42;;;;;;;25.95;16.05;;;;;;;;;;5023256;28;20033;-32
2021/12/23 16:02:07;;;;;;;36.17;15.43;;;;;;;;;;5023265;28;20655;-30
2021/12/23 16:04:37;;;;;;;29.08;15.57;;;;;;;;;;5035868;28;20087;-30
2021/12/23 16:07:19;;;;;;;28.25;16.38;;;;;;;;;;5042361;28;20602;-31
2021/12/23 16:09:50;;;;;;;29.77;15.77;;;;;;;;;;5029328;28;20049;-33
2021/12/23 16:12:16;;;;;;;30.73;16.48;;;;;;;;;;5023042;28;20057;-34
2021/12/23 16:14:43;;;;;;;24.95;15.07;;;;;;;;;;5022827;28;20029;-28
2021/12/23 16:17:10;;;;;;;26.20;15.10;;;;;;;;;;5022875;28;20036;-33
2021/12/23 16:19:36;;;;;;;27.02;15.48;;;;;;;;;;5022935;28;20491;-31
2021/12/23 16:22:01;;;;;;;24.85;15.07;;;;;;;;;;5022773;28;20029;-27